Angleton, Texas
Current Conditions -  °F | °C
As of 9:03 AM on Monday 22 Dec 2014 (Local Time) from KLBX Reporting Station
Overcast Overcast  
Wind Chill: 63°   Ceiling: 900
Heat Index: 63°   Visibility: 10mi
Dew Point: 63°   Wind: 9mph
Humidity: 100%   Direction: 220°SW
Pressure: 29.78"   Gusts: NA
Location:  29.16°N, 95.43°W
Report Text: KLBX 221503Z AUTO 22008KT 10SM BKN009 OVC038 17/17 A2978 RMK AO2 CIG 006V012 T01720172
Loading
Personal Weather Stations






























Interactive Weather Map New forecast layout! Learn more

10-Day Weather Forecast

Advertisements
Track Severe Weather on mobile